Terminal Aerodrome Forecast
Issued by NWS Shreveport, LA

Home | Current Version | Previous Version | Text Only | Print | Product List | Glossary On
Versions: 1 2 3 4 5 6 7 8 9 10 11 12 13 14 15 16 17 18 19 20 21 22 23 24 25 26 27
000
FTUS44 KSHV 241756
TAFMLU
TAF
KMLU 241756Z 2418/2518 19015G25KT P6SM VCTS BKN025 OVC035CB
      TEMPO 2502/2505 VRB25G40KT 1SM +TSRA OVC005CB
     FM250500 28010KT 4SM -TSRA BR OVC010CB
     FM250700 32007KT 4SM -TSRA BR OVC010CB
     FM250900 36006KT P6SM VCSH BKN050 OVC200
     FM251400 06006KT P6SM BKN120 BKN200=

USA.gov is the U.S. government's official web portal to all federal, state and local government web resources and services.